Tuesday, March 03, 2015
04:42 UTC
  |  Log In   |  Register Free
Airport Search:

Bishop International Airport
(KFNT)

FAA data valid effective January 08, 2015 - March 05, 2015 (unless otherwise noted).

 
 
 
 
 
 
 
 
 
 
 
 
 
 

Current Aviation Weather for Bishop International Airport (KFNT)

The most recent METAR observation for KFNT was updated at: 0411
METAR Summary (Translated METAR)
KFNT
030353Z 16004KT 10SM CLR M08/M13 A3033 RMK AO2 SLP285 T10781128
KRNP
030415Z AUTO 00000KT 10SM CLR M08/M11 A3033 RMK AO2 T10811108
(17.4 nm NW from KFNT)
KD95
030353Z AUTO 00000KT 10SM CLR M13/M15 A3034 RMK AO2 T11281149
(21.6 nm NE from KFNT)
TAF Summary (Translated TAF)
KFNT
022359Z 0300/0324 28008KT P6SM SKC FM030200 VRB04KT P6SM BKN150 FM031400 14012KT 4SM -SN BKN035 OVC070 FM031500 14012KT 1SM -SN BR OVC015 FM031900 15012KT 1SM -FZRAPL BR BKN008 OVC015 FM032300 21015KT 2SM -DZ BR OVC007
  Airport Weather Conditions for KFNT

 Current Weather at FNT
18° F
Fair
South winds at 4.6 mph
FNT NOAA Radar

Pressure: 30.33 in
Humidity: 68%
Wind: South at 4.6 MPH (4 KT)
Dew Point: 9.0°F
Visibility: 10.00 mi


Airport Weather Forecast for KFNT

Translated METAR and TAF for KFNT
Translated METAR for KFNT (0442 UTC 03 March 2015)
found at http://aviationweather.gov/adds/metars/
 
METAR text: KFNT 030353Z 16004KT 10SM CLR M08/M13 A3033 RMK AO2 SLP285 T10781128
Conditions at: KFNT (FLINT , MI, US) observed 0353 UTC 03 March 2015
Temperature: -7.8°C (18°F)
Dewpoint: -12.8°C (9°F) [RH = 67%]
Pressure (altimeter): 30.33 inches Hg (1027.2 mb)
[Sea-level pressure: 1028.5 mb]
Winds: from the SSE (160 degrees) at 5 MPH (4 knots; 2.1 m/s)
Visibility: 10 or more miles (16+ km)
Ceiling: at least 12,000 feet AGL
Clouds: sky clear below 12,000 feet AGL
Weather: no significant weather observed at this time
Translated TAF for KFNT
Forecast for: KFNT (FLINT , MI, US)
TAF Text: KFNT 022359Z 0300/0324 28008KT P6SM SKC
Forecast period: 0000 to 0200 UTC 03 March 2015
Forecast type: FROM: standard forecast or significant change
Winds: from the W (280 degrees) at 9 MPH (8 knots; 4.2 m/s)
Visibility: 6 or more miles (10+ km)
Clouds: clear skies
Weather: no significant weather forecast for this period
TAF Text: FM030200 VRB04KT P6SM BKN150
Forecast period: 0200 to 1400 UTC 03 March 2015
Forecast type: FROM: standard forecast or significant change
Winds: variable direction winds at 5 MPH (4 knots; 2.1 m/s)
Visibility: 6 or more miles (10+ km)
Ceiling: 15000 feet AGL
Clouds: broken clouds at 15000 feet AGL
Weather: no significant weather forecast for this period
TAF Text: FM031400 14012KT 4SM -SN BKN035 OVC070
Forecast period: 1400 to 1500 UTC 03 March 2015
Forecast type: FROM: standard forecast or significant change
Winds: from the SE (140 degrees) at 14 MPH (12 knots; 6.2 m/s)
Visibility: 4 miles (6 km)
Ceiling: 3500 feet AGL
Clouds: broken clouds at 3500 feet AGL
overcast cloud deck at 7000 feet AGL
Weather: -SN  (light snow)
TAF Text: FM031500 14012KT 1SM -SN BR OVC015
Forecast period: 1500 to 1900 UTC 03 March 2015
Forecast type: FROM: standard forecast or significant change
Winds: from the SE (140 degrees) at 14 MPH (12 knots; 6.2 m/s)
Visibility: 1.00 miles (1.61 km)
Ceiling: 1500 feet AGL
Clouds: overcast cloud deck at 1500 feet AGL
Weather: -SN BR  (light snow, mist)
TAF Text: FM031900 15012KT 1SM -FZRAPL BR BKN008 OVC015
Forecast period: 1900 to 2300 UTC 03 March 2015
Forecast type: FROM: standard forecast or significant change
Winds: from the SSE (150 degrees) at 14 MPH (12 knots; 6.2 m/s)
Visibility: 1.00 miles (1.61 km)
Ceiling: 800 feet AGL
Clouds: broken clouds at 800 feet AGL
overcast cloud deck at 1500 feet AGL
Weather: -FZRA PL BR  (light freezing rain, ice pellets, mist)
TAF Text: FM032300 21015KT 2SM -DZ BR OVC007
Forecast period: 2300 UTC 03 March 2015 to 0000 UTC 04 March 2015
Forecast type: FROM: standard forecast or significant change
Winds: from the SSW (210 degrees) at 17 MPH (15 knots; 7.8 m/s)
Visibility: 2.00 miles (3.22 km)
Ceiling: 700 feet AGL
Clouds: overcast cloud deck at 700 feet AGL
Weather: -DZ BR  (light drizzle, mist)

Find All Airport Services Find A Hotel Find A Rental Car Find A Golf Course Find A Restaurant $100 Hamburger



FBO's on the Field
FBO Company Facility Photos Services Transportation Aviation Fuel Prices: Prices include tax
Catering Weather Repair Courtesy Rental Type 100LL JetA JetA+ MOGAS 8087
 
Avflight Flint

This FBO has not yet been rated
FS:Avfuel
Last Updated: Mar-02
Login to update fuel prices
SS:
Contact Avflight FlintMore FBO Information
 
Add another FBO Facility Photos Catering Weather Repair Courtesy Rental Type 100LL JetA JetA+ MOGAS 8087
Services Transportation Aviation Fuel Prices: Prices include tax


model-print
model-print
model-print
model-print